Airfield :







YOU CAN JOIN US ON...

 
LOGIN :

Register | Disclaimer

   EN    FR    IT 

 









Legend :    VFR   Marginal VFR   IFR   Intensive IFR   Very Intensive IFR
Visi :
Ceiling :
>= 8 km
>= 3000ft
5 to 8 km
1000 to 3000 ft
1500m to 5 km
500 to 1000 ft
800 to 1500m
200 to 500 ft
< 800m
< 200 ft
Symbols :   Thunderstorms  Fog  Heavy snow  Heavy precipitations  Wind > 20 kt






- Airport Elevation : 76 ft
- IATA code : EGS


BIEG - Egilsstaðir

CURRENT METAR :
  • 162000Z 05010KT 9999 BKN028 OVC039 06/02 Q1007 RMK WIND GAGNHEIDI 07042KT

EXPIRED METARs :
  • 161900Z 05010KT 9999 FEW027 BKN036 OVC041 06/02 Q1007 RMK WIND GAGNHEIDI 07041KT
  • 161800Z 04010KT 9999 -SHRA FEW024 BKN026 OVC038 07/01 Q1007 RMK WIND GAGNHEIDI 07039KT

TAF TAF BIEG
Valid from the 16 at 18:00 until the 17 at 18:00 UTC


161602Z 1618/1718 01010KT 9999 -SHRA FEW020 BKN030 TX07/1615Z TN03/1709Z
TEMPO 1703/1718 01015G25KT -SHRASN BKN015



MET'MAP, your aeronautical weather chart ! - Copyright ORBIFLY December 2007 - Disclaimer

ORBIFLY MET'MAP TEAM :

Programming & Development : Alexandra Zaïnal
Concept & Development : Baudouin d'Aumeries
Co-Development & Prog : Marc-Olivier Méhu
Technical & hardware support : Manuel Goepfert

Contact : metmap@orbifly.com




SOURCES & CREDITS :

   NOAA